Other Surface Observations
Issued by NWS Great Falls, MT

Home | Current Version | Previous Version | Text Only | Print | Product List | Glossary On
Versions: 1 2 3 4 5 6 7 8 9 10 11 12 13 14 15 16 17 18 19 20 21 22 23 24 25 26 27 28 29 30 31 32 33 34 35 36 37 38 39 40 41 42 43 44 45 46 47 48 49 50
782
SXUS55 KTFX 232201
OSOTFX

AREA AWOS OBSERVATIONS
NATIONAL WEATHER SERVICE GREAT FALLS MT
0301 PM MST Tue Jan 23 2018

METAR KCII 232200Z AUTO 23010KT 10SM 03/M09 A3003 RMK A01
METAR K6S0 232200Z AUTO 27023G28KT 10SM CLR 03/M11 A3010 RMK A01
METAR K6S8 232155Z AUTO 25009KT 10SM 04/M09 A3015 RMK A01
METAR K7S6 232200Z AUTO 17016G22KT 10SM M03/M10 A3007 RMK A01
METAR K7S0 232155Z AUTO 00000KT 10SM M02/M05 A3012 RMK A01



USA.gov is the U.S. government's official web portal to all federal, state and local government web resources and services.